sensor_id;sensor_type;location;lat;lon;timestamp;P1;durP1;ratioP1;P2;durP2;ratioP2
966;SDS011;56108;48.730;9.304;2023-07-28T00:01:34;2.95;;;2.67;;
966;SDS011;56108;48.730;9.304;2023-07-28T00:03:42;3.05;;;2.75;;
966;SDS011;56108;48.730;9.304;2023-07-28T00:05:50;2.42;;;2.22;;
966;SDS011;56108;48.730;9.304;2023-07-28T00:07:58;2.60;;;2.40;;
966;SDS011;56108;48.730;9.304;2023-07-28T00:10:10;3.35;;;2.80;;
966;SDS011;56108;48.730;9.304;2023-07-28T00:12:18;2.25;;;1.98;;
966;SDS011;56108;48.730;9.304;2023-07-28T00:14:26;2.88;;;2.65;;
966;SDS011;56108;48.730;9.304;2023-07-28T00:16:35;3.50;;;3.20;;
966;SDS011;56108;48.730;9.304;2023-07-28T00:18:43;3.42;;;3.08;;
966;SDS011;56108;48.730;9.304;2023-07-28T00:20:51;4.70;;;3.53;;
966;SDS011;56108;48.730;9.304;2023-07-28T00:22:59;3.00;;;2.75;;
966;SDS011;56108;48.730;9.304;2023-07-28T00:25:10;3.80;;;3.20;;
966;SDS011;56108;48.730;9.304;2023-07-28T00:27:18;3.60;;;3.30;;
966;SDS011;56108;48.730;9.304;2023-07-28T00:29:26;3.55;;;3.20;;
966;SDS011;56108;48.730;9.304;2023-07-28T00:31:34;2.75;;;2.40;;
966;SDS011;56108;48.730;9.304;2023-07-28T00:33:45;2.83;;;2.30;;
966;SDS011;56108;48.730;9.304;2023-07-28T00:35:53;2.78;;;2.58;;
966;SDS011;56108;48.730;9.304;2023-07-28T00:38:01;2.47;;;2.25;;
966;SDS011;56108;48.730;9.304;2023-07-28T00:40:14;3.67;;;3.38;;
966;SDS011;56108;48.730;9.304;2023-07-28T00:42:22;3.72;;;3.25;;
966;SDS011;56108;48.730;9.304;2023-07-28T00:44:32;4.20;;;3.00;;
966;SDS011;56108;48.730;9.304;2023-07-28T00:46:40;3.08;;;2.78;;
966;SDS011;56108;48.730;9.304;2023-07-28T00:48:48;3.45;;;3.17;;
966;SDS011;56108;48.730;9.304;2023-07-28T00:50:57;3.78;;;3.47;;
966;SDS011;56108;48.730;9.304;2023-07-28T00:53:05;4.28;;;3.72;;
966;SDS011;56108;48.730;9.304;2023-07-28T00:55:17;3.13;;;2.80;;
966;SDS011;56108;48.730;9.304;2023-07-28T00:57:26;4.10;;;3.30;;
966;SDS011;56108;48.730;9.304;2023-07-28T00:59:34;3.65;;;3.30;;
966;SDS011;56108;48.730;9.304;2023-07-28T01:01:42;3.45;;;3.08;;
966;SDS011;56108;48.730;9.304;2023-07-28T01:03:51;4.32;;;3.40;;
966;SDS011;56108;48.730;9.304;2023-07-28T01:06:02;4.80;;;3.65;;
966;SDS011;56108;48.730;9.304;2023-07-28T01:08:22;3.88;;;3.45;;
966;SDS011;56108;48.730;9.304;2023-07-28T01:10:37;3.90;;;3.55;;
966;SDS011;56108;48.730;9.304;2023-07-28T01:12:46;4.20;;;3.10;;
966;SDS011;56108;48.730;9.304;2023-07-28T01:14:54;5.25;;;3.63;;
966;SDS011;56108;48.730;9.304;2023-07-28T01:17:03;3.72;;;3.45;;
966;SDS011;56108;48.730;9.304;2023-07-28T01:19:11;2.90;;;2.70;;
966;SDS011;56108;48.730;9.304;2023-07-28T01:21:22;3.83;;;3.42;;
966;SDS011;56108;48.730;9.304;2023-07-28T01:23:36;3.78;;;3.42;;
966;SDS011;56108;48.730;9.304;2023-07-28T01:25:53;3.38;;;2.72;;
966;SDS011;56108;48.730;9.304;2023-07-28T01:28:14;4.18;;;2.92;;
966;SDS011;56108;48.730;9.304;2023-07-28T01:30:23;4.65;;;2.85;;
966;SDS011;56108;48.730;9.304;2023-07-28T01:32:33;3.33;;;3.05;;
966;SDS011;56108;48.730;9.304;2023-07-28T01:34:41;3.40;;;2.72;;
966;SDS011;56108;48.730;9.304;2023-07-28T01:36:49;3.35;;;3.05;;
966;SDS011;56108;48.730;9.304;2023-07-28T01:38:57;3.45;;;3.15;;
966;SDS011;56108;48.730;9.304;2023-07-28T01:41:05;3.28;;;2.88;;
966;SDS011;56108;48.730;9.304;2023-07-28T01:43:15;4.35;;;2.83;;
966;SDS011;56108;48.730;9.304;2023-07-28T01:45:23;3.00;;;2.70;;
966;SDS011;56108;48.730;9.304;2023-07-28T01:47:29;3.15;;;2.78;;
966;SDS011;56108;48.730;9.304;2023-07-28T01:49:37;2.13;;;2.00;;
966;SDS011;56108;48.730;9.304;2023-07-28T01:51:46;2.63;;;2.42;;
966;SDS011;56108;48.730;9.304;2023-07-28T01:53:54;3.45;;;3.15;;
966;SDS011;56108;48.730;9.304;2023-07-28T01:56:02;2.72;;;2.53;;
966;SDS011;56108;48.730;9.304;2023-07-28T01:58:11;3.20;;;2.88;;
966;SDS011;56108;48.730;9.304;2023-07-28T02:00:22;2.83;;;2.58;;
966;SDS011;56108;48.730;9.304;2023-07-28T02:02:30;3.25;;;2.95;;
966;SDS011;56108;48.730;9.304;2023-07-28T02:04:39;2.85;;;2.45;;
966;SDS011;56108;48.730;9.304;2023-07-28T02:06:47;3.60;;;3.30;;
966;SDS011;56108;48.730;9.304;2023-07-28T02:08:52;2.92;;;2.60;;
966;SDS011;56108;48.730;9.304;2023-07-28T02:11:00;2.92;;;2.63;;
966;SDS011;56108;48.730;9.304;2023-07-28T02:13:10;3.03;;;2.83;;
966;SDS011;56108;48.730;9.304;2023-07-28T02:15:18;3.47;;;3.08;;
966;SDS011;56108;48.730;9.304;2023-07-28T02:17:29;2.50;;;2.30;;
966;SDS011;56108;48.730;9.304;2023-07-28T02:19:35;3.15;;;2.95;;
966;SDS011;56108;48.730;9.304;2023-07-28T02:21:43;2.83;;;2.60;;
966;SDS011;56108;48.730;9.304;2023-07-28T02:23:51;2.70;;;2.50;;
966;SDS011;56108;48.730;9.304;2023-07-28T02:25:59;2.97;;;2.78;;
966;SDS011;56108;48.730;9.304;2023-07-28T02:28:08;3.20;;;2.97;;
966;SDS011;56108;48.730;9.304;2023-07-28T02:30:18;4.68;;;3.30;;
966;SDS011;56108;48.730;9.304;2023-07-28T02:32:29;3.22;;;3.03;;
966;SDS011;56108;48.730;9.304;2023-07-28T02:34:38;2.90;;;2.60;;
966;SDS011;56108;48.730;9.304;2023-07-28T02:36:50;3.70;;;3.40;;
966;SDS011;56108;48.730;9.304;2023-07-28T02:39:06;3.63;;;3.33;;
966;SDS011;56108;48.730;9.304;2023-07-28T02:41:14;3.15;;;2.85;;
966;SDS011;56108;48.730;9.304;2023-07-28T02:43:23;3.30;;;3.00;;
966;SDS011;56108;48.730;9.304;2023-07-28T02:45:31;3.28;;;2.92;;
966;SDS011;56108;48.730;9.304;2023-07-28T02:47:42;3.53;;;3.08;;
966;SDS011;56108;48.730;9.304;2023-07-28T02:49:50;3.70;;;3.10;;
966;SDS011;56108;48.730;9.304;2023-07-28T02:51:58;2.90;;;2.70;;
966;SDS011;56108;48.730;9.304;2023-07-28T02:54:07;4.55;;;3.70;;
966;SDS011;56108;48.730;9.304;2023-07-28T02:56:15;3.55;;;3.25;;
966;SDS011;56108;48.730;9.304;2023-07-28T02:58:25;3.20;;;3.00;;
966;SDS011;56108;48.730;9.304;2023-07-28T03:00:33;3.22;;;3.03;;
966;SDS011;56108;48.730;9.304;2023-07-28T03:02:47;3.17;;;2.95;;
966;SDS011;56108;48.730;9.304;2023-07-28T03:04:56;3.67;;;3.33;;
966;SDS011;56108;48.730;9.304;2023-07-28T03:07:32;2.67;;;2.45;;
966;SDS011;56108;48.730;9.304;2023-07-28T03:09:44;2.90;;;2.50;;
966;SDS011;56108;48.730;9.304;2023-07-28T03:11:52;3.58;;;3.00;;
966;SDS011;56108;48.730;9.304;2023-07-28T03:14:01;3.15;;;2.58;;
966;SDS011;56108;48.730;9.304;2023-07-28T03:16:06;3.20;;;3.00;;
966;SDS011;56108;48.730;9.304;2023-07-28T03:18:17;3.40;;;3.10;;
966;SDS011;56108;48.730;9.304;2023-07-28T03:20:25;5.25;;;2.55;;
966;SDS011;56108;48.730;9.304;2023-07-28T03:22:33;3.10;;;2.90;;
966;SDS011;56108;48.730;9.304;2023-07-28T03:24:39;3.05;;;2.85;;
966;SDS011;56108;48.730;9.304;2023-07-28T03:26:47;3.38;;;2.85;;
966;SDS011;56108;48.730;9.304;2023-07-28T03:28:55;3.00;;;2.72;;
966;SDS011;56108;48.730;9.304;2023-07-28T03:31:03;6.05;;;2.90;;
966;SDS011;56108;48.730;9.304;2023-07-28T03:33:09;3.65;;;3.35;;
966;SDS011;56108;48.730;9.304;2023-07-28T03:35:20;3.20;;;2.90;;
966;SDS011;56108;48.730;9.304;2023-07-28T03:37:37;3.10;;;2.90;;
966;SDS011;56108;48.730;9.304;2023-07-28T03:39:46;4.13;;;2.97;;
966;SDS011;56108;48.730;9.304;2023-07-28T03:41:57;3.78;;;3.05;;
966;SDS011;56108;48.730;9.304;2023-07-28T03:44:06;3.50;;;3.20;;
966;SDS011;56108;48.730;9.304;2023-07-28T03:46:17;3.95;;;3.47;;
966;SDS011;56108;48.730;9.304;2023-07-28T03:48:25;3.83;;;3.42;;
966;SDS011;56108;48.730;9.304;2023-07-28T03:50:35;3.10;;;2.90;;
966;SDS011;56108;48.730;9.304;2023-07-28T03:52:43;3.20;;;2.90;;
966;SDS011;56108;48.730;9.304;2023-07-28T03:54:53;3.28;;;2.97;;
966;SDS011;56108;48.730;9.304;2023-07-28T03:57:01;3.95;;;3.33;;
966;SDS011;56108;48.730;9.304;2023-07-28T03:59:09;4.75;;;3.92;;
966;SDS011;56108;48.730;9.304;2023-07-28T04:01:17;4.07;;;3.22;;
966;SDS011;56108;48.730;9.304;2023-07-28T04:03:26;3.03;;;2.67;;
966;SDS011;56108;48.730;9.304;2023-07-28T04:05:38;2.70;;;2.50;;
966;SDS011;56108;48.730;9.304;2023-07-28T04:07:46;2.63;;;2.42;;
966;SDS011;56108;48.730;9.304;2023-07-28T04:09:54;2.92;;;2.70;;
966;SDS011;56108;48.730;9.304;2023-07-28T04:12:03;2.80;;;2.60;;
966;SDS011;56108;48.730;9.304;2023-07-28T04:14:12;3.10;;;2.80;;
966;SDS011;56108;48.730;9.304;2023-07-28T04:16:20;3.15;;;2.80;;
966;SDS011;56108;48.730;9.304;2023-07-28T04:18:28;3.78;;;3.47;;
966;SDS011;56108;48.730;9.304;2023-07-28T04:20:40;3.90;;;2.83;;
966;SDS011;56108;48.730;9.304;2023-07-28T04:22:48;3.58;;;3.25;;
966;SDS011;56108;48.730;9.304;2023-07-28T04:24:57;4.07;;;3.78;;
966;SDS011;56108;48.730;9.304;2023-07-28T04:27:06;3.10;;;2.80;;
966;SDS011;56108;48.730;9.304;2023-07-28T04:29:14;4.03;;;2.97;;
966;SDS011;56108;48.730;9.304;2023-07-28T04:31:22;6.78;;;3.30;;
966;SDS011;56108;48.730;9.304;2023-07-28T04:33:42;4.35;;;3.33;;
966;SDS011;56108;48.730;9.304;2023-07-28T04:35:53;3.15;;;2.85;;
966;SDS011;56108;48.730;9.304;2023-07-28T04:38:10;3.05;;;2.85;;
966;SDS011;56108;48.730;9.304;2023-07-28T04:40:25;5.07;;;3.58;;
966;SDS011;56108;48.730;9.304;2023-07-28T04:42:33;3.08;;;2.85;;
966;SDS011;56108;48.730;9.304;2023-07-28T04:44:42;2.92;;;2.53;;
966;SDS011;56108;48.730;9.304;2023-07-28T04:46:52;3.30;;;3.00;;
966;SDS011;56108;48.730;9.304;2023-07-28T04:49:00;2.70;;;2.50;;
966;SDS011;56108;48.730;9.304;2023-07-28T04:51:30;3.08;;;2.78;;
966;SDS011;56108;48.730;9.304;2023-07-28T04:54:08;3.92;;;3.40;;
966;SDS011;56108;48.730;9.304;2023-07-28T04:56:16;3.25;;;2.95;;
966;SDS011;56108;48.730;9.304;2023-07-28T04:58:24;3.10;;;2.90;;
966;SDS011;56108;48.730;9.304;2023-07-28T05:00:37;2.85;;;2.55;;
966;SDS011;56108;48.730;9.304;2023-07-28T05:02:45;3.17;;;2.97;;
966;SDS011;56108;48.730;9.304;2023-07-28T05:04:54;3.30;;;2.90;;
966;SDS011;56108;48.730;9.304;2023-07-28T05:07:06;2.58;;;2.40;;
966;SDS011;56108;48.730;9.304;2023-07-28T05:09:14;3.08;;;2.60;;
966;SDS011;56108;48.730;9.304;2023-07-28T05:11:22;3.50;;;2.70;;
966;SDS011;56108;48.730;9.304;2023-07-28T05:13:31;4.07;;;3.08;;
966;SDS011;56108;48.730;9.304;2023-07-28T05:15:39;2.90;;;2.58;;
966;SDS011;56108;48.730;9.304;2023-07-28T05:17:54;3.60;;;2.70;;
966;SDS011;56108;48.730;9.304;2023-07-28T05:20:17;2.72;;;2.10;;
966;SDS011;56108;48.730;9.304;2023-07-28T05:22:44;3.80;;;2.88;;
966;SDS011;56108;48.730;9.304;2023-07-28T05:24:53;2.40;;;2.30;;
966;SDS011;56108;48.730;9.304;2023-07-28T05:27:05;3.22;;;2.92;;
966;SDS011;56108;48.730;9.304;2023-07-28T05:29:14;2.83;;;2.47;;
966;SDS011;56108;48.730;9.304;2023-07-28T05:31:24;2.15;;;2.05;;
966;SDS011;56108;48.730;9.304;2023-07-28T05:33:30;2.63;;;2.42;;
966;SDS011;56108;48.730;9.304;2023-07-28T05:35:40;2.50;;;2.30;;
966;SDS011;56108;48.730;9.304;2023-07-28T05:37:52;3.53;;;3.22;;
966;SDS011;56108;48.730;9.304;2023-07-28T05:40:01;2.45;;;2.25;;
966;SDS011;56108;48.730;9.304;2023-07-28T05:42:10;5.95;;;3.60;;
966;SDS011;56108;48.730;9.304;2023-07-28T05:44:18;3.00;;;2.80;;
966;SDS011;56108;48.730;9.304;2023-07-28T05:46:26;2.70;;;2.50;;
966;SDS011;56108;48.730;9.304;2023-07-28T05:48:35;2.92;;;2.70;;
966;SDS011;56108;48.730;9.304;2023-07-28T05:50:40;3.03;;;2.72;;
966;SDS011;56108;48.730;9.304;2023-07-28T05:52:51;4.72;;;3.28;;
966;SDS011;56108;48.730;9.304;2023-07-28T05:54:59;3.53;;;3.25;;
966;SDS011;56108;48.730;9.304;2023-07-28T05:57:05;3.10;;;2.80;;
966;SDS011;56108;48.730;9.304;2023-07-28T05:59:14;3.85;;;3.28;;
966;SDS011;56108;48.730;9.304;2023-07-28T06:01:22;3.42;;;3.13;;
966;SDS011;56108;48.730;9.304;2023-07-28T06:03:50;3.88;;;3.55;;
966;SDS011;56108;48.730;9.304;2023-07-28T06:06:06;5.10;;;4.28;;
966;SDS011;56108;48.730;9.304;2023-07-28T06:08:17;5.25;;;3.78;;
966;SDS011;56108;48.730;9.304;2023-07-28T06:10:25;4.30;;;3.90;;
966;SDS011;56108;48.730;9.304;2023-07-28T06:12:33;4.53;;;3.72;;
966;SDS011;56108;48.730;9.304;2023-07-28T06:14:41;2.88;;;2.55;;
966;SDS011;56108;48.730;9.304;2023-07-28T06:16:50;3.03;;;2.83;;
966;SDS011;56108;48.730;9.304;2023-07-28T06:18:59;3.55;;;3.20;;
966;SDS011;56108;48.730;9.304;2023-07-28T06:21:07;3.40;;;3.15;;
966;SDS011;56108;48.730;9.304;2023-07-28T06:23:18;3.85;;;3.05;;
966;SDS011;56108;48.730;9.304;2023-07-28T06:25:29;3.60;;;3.30;;
966;SDS011;56108;48.730;9.304;2023-07-28T06:27:43;3.80;;;3.35;;
966;SDS011;56108;48.730;9.304;2023-07-28T06:29:51;3.15;;;2.70;;
966;SDS011;56108;48.730;9.304;2023-07-28T06:32:00;3.60;;;3.30;;
966;SDS011;56108;48.730;9.304;2023-07-28T06:34:08;3.88;;;3.58;;
966;SDS011;56108;48.730;9.304;2023-07-28T06:36:17;3.22;;;2.70;;
966;SDS011;56108;48.730;9.304;2023-07-28T06:38:28;3.83;;;3.25;;
966;SDS011;56108;48.730;9.304;2023-07-28T06:40:36;5.35;;;3.55;;
966;SDS011;56108;48.730;9.304;2023-07-28T06:42:44;3.42;;;3.20;;
966;SDS011;56108;48.730;9.304;2023-07-28T06:44:53;3.92;;;2.95;;
966;SDS011;56108;48.730;9.304;2023-07-28T06:47:01;3.90;;;3.50;;
966;SDS011;56108;48.730;9.304;2023-07-28T06:49:10;3.83;;;3.53;;
966;SDS011;56108;48.730;9.304;2023-07-28T06:51:18;3.40;;;3.10;;
966;SDS011;56108;48.730;9.304;2023-07-28T06:53:28;4.70;;;3.58;;
966;SDS011;56108;48.730;9.304;2023-07-28T06:55:36;3.08;;;2.83;;
966;SDS011;56108;48.730;9.304;2023-07-28T06:57:45;3.85;;;3.45;;
966;SDS011;56108;48.730;9.304;2023-07-28T06:59:54;3.22;;;2.92;;
966;SDS011;56108;48.730;9.304;2023-07-28T07:02:05;4.07;;;3.25;;
966;SDS011;56108;48.730;9.304;2023-07-28T07:04:15;3.80;;;3.50;;
966;SDS011;56108;48.730;9.304;2023-07-28T07:06:23;4.00;;;3.65;;
966;SDS011;56108;48.730;9.304;2023-07-28T07:08:34;3.22;;;3.03;;
966;SDS011;56108;48.730;9.304;2023-07-28T07:10:46;3.38;;;3.08;;
966;SDS011;56108;48.730;9.304;2023-07-28T07:12:55;3.45;;;3.15;;
966;SDS011;56108;48.730;9.304;2023-07-28T07:15:01;5.75;;;3.65;;
966;SDS011;56108;48.730;9.304;2023-07-28T07:17:09;3.60;;;3.30;;
966;SDS011;56108;48.730;9.304;2023-07-28T07:19:17;4.30;;;3.88;;
966;SDS011;56108;48.730;9.304;2023-07-28T07:21:26;3.33;;;3.05;;
966;SDS011;56108;48.730;9.304;2023-07-28T07:23:37;4.63;;;4.22;;
966;SDS011;56108;48.730;9.304;2023-07-28T07:26:02;3.63;;;3.30;;
966;SDS011;56108;48.730;9.304;2023-07-28T07:28:10;3.22;;;3.03;;
966;SDS011;56108;48.730;9.304;2023-07-28T07:30:19;4.10;;;3.65;;
966;SDS011;56108;48.730;9.304;2023-07-28T07:32:27;3.10;;;2.80;;
966;SDS011;56108;48.730;9.304;2023-07-28T07:34:36;3.88;;;3.15;;
966;SDS011;56108;48.730;9.304;2023-07-28T07:36:45;4.32;;;3.92;;
966;SDS011;56108;48.730;9.304;2023-07-28T07:38:56;3.97;;;3.58;;
966;SDS011;56108;48.730;9.304;2023-07-28T07:41:04;4.30;;;2.67;;
966;SDS011;56108;48.730;9.304;2023-07-28T07:43:13;4.97;;;3.75;;
966;SDS011;56108;48.730;9.304;2023-07-28T07:45:25;3.53;;;3.17;;
966;SDS011;56108;48.730;9.304;2023-07-28T07:47:33;2.80;;;2.60;;
966;SDS011;56108;48.730;9.304;2023-07-28T07:49:41;3.75;;;3.28;;
966;SDS011;56108;48.730;9.304;2023-07-28T07:51:49;3.50;;;3.20;;
966;SDS011;56108;48.730;9.304;2023-07-28T07:54:00;5.57;;;3.88;;
966;SDS011;56108;48.730;9.304;2023-07-28T07:56:09;6.47;;;3.17;;
966;SDS011;56108;48.730;9.304;2023-07-28T07:58:17;5.07;;;2.90;;
966;SDS011;56108;48.730;9.304;2023-07-28T08:00:25;6.97;;;4.20;;
966;SDS011;56108;48.730;9.304;2023-07-28T08:02:34;17.00;;;3.83;;
966;SDS011;56108;48.730;9.304;2023-07-28T08:04:42;5.05;;;3.72;;
966;SDS011;56108;48.730;9.304;2023-07-28T08:06:51;4.10;;;3.53;;
966;SDS011;56108;48.730;9.304;2023-07-28T08:09:02;3.55;;;3.25;;
966;SDS011;56108;48.730;9.304;2023-07-28T08:11:11;4.03;;;3.63;;
966;SDS011;56108;48.730;9.304;2023-07-28T08:13:19;4.20;;;3.80;;
966;SDS011;56108;48.730;9.304;2023-07-28T08:15:27;3.72;;;3.35;;
966;SDS011;56108;48.730;9.304;2023-07-28T08:17:37;3.47;;;3.00;;
966;SDS011;56108;48.730;9.304;2023-07-28T08:19:45;4.68;;;3.85;;
966;SDS011;56108;48.730;9.304;2023-07-28T08:21:54;3.35;;;3.05;;
966;SDS011;56108;48.730;9.304;2023-07-28T08:24:05;3.17;;;2.88;;
966;SDS011;56108;48.730;9.304;2023-07-28T08:26:14;3.83;;;3.53;;
966;SDS011;56108;48.730;9.304;2023-07-28T08:28:22;3.60;;;3.40;;
966;SDS011;56108;48.730;9.304;2023-07-28T08:30:30;4.05;;;3.65;;
966;SDS011;56108;48.730;9.304;2023-07-28T08:32:39;3.80;;;3.50;;
966;SDS011;56108;48.730;9.304;2023-07-28T08:34:47;3.72;;;3.38;;
966;SDS011;56108;48.730;9.304;2023-07-28T08:36:55;4.40;;;4.00;;
966;SDS011;56108;48.730;9.304;2023-07-28T08:39:06;4.45;;;4.05;;
966;SDS011;56108;48.730;9.304;2023-07-28T08:41:14;4.50;;;4.05;;
966;SDS011;56108;48.730;9.304;2023-07-28T08:43:22;4.22;;;3.83;;
966;SDS011;56108;48.730;9.304;2023-07-28T08:45:31;4.32;;;3.80;;
966;SDS011;56108;48.730;9.304;2023-07-28T08:47:39;4.00;;;3.67;;
966;SDS011;56108;48.730;9.304;2023-07-28T08:49:47;4.33;;;3.87;;
966;SDS011;56108;48.730;9.304;2023-07-28T08:51:57;3.50;;;3.20;;
966;SDS011;56108;48.730;9.304;2023-07-28T08:54:09;4.43;;;3.40;;
966;SDS011;56108;48.730;9.304;2023-07-28T08:56:18;4.17;;;3.77;;
966;SDS011;56108;48.730;9.304;2023-07-28T08:58:26;3.87;;;3.20;;
966;SDS011;56108;48.730;9.304;2023-07-28T09:00:36;3.90;;;3.60;;
966;SDS011;56108;48.730;9.304;2023-07-28T09:02:48;4.17;;;3.77;;
966;SDS011;56108;48.730;9.304;2023-07-28T09:04:57;3.23;;;2.93;;
966;SDS011;56108;48.730;9.304;2023-07-28T09:07:06;3.83;;;3.53;;
966;SDS011;56108;48.730;9.304;2023-07-28T09:09:17;8.10;;;3.97;;
966;SDS011;56108;48.730;9.304;2023-07-28T09:11:30;4.80;;;4.20;;
966;SDS011;56108;48.730;9.304;2023-07-28T09:13:38;4.13;;;3.83;;
966;SDS011;56108;48.730;9.304;2023-07-28T09:15:48;3.70;;;3.40;;
966;SDS011;56108;48.730;9.304;2023-07-28T09:17:57;3.73;;;3.33;;
966;SDS011;56108;48.730;9.304;2023-07-28T09:20:09;3.90;;;3.50;;
966;SDS011;56108;48.730;9.304;2023-07-28T09:22:21;3.03;;;2.70;;
966;SDS011;56108;48.730;9.304;2023-07-28T09:24:33;3.90;;;3.27;;
966;SDS011;56108;48.730;9.304;2023-07-28T09:26:41;3.60;;;3.30;;
966;SDS011;56108;48.730;9.304;2023-07-28T09:28:50;3.87;;;3.43;;
966;SDS011;56108;48.730;9.304;2023-07-28T09:30:59;3.20;;;2.90;;
966;SDS011;56108;48.730;9.304;2023-07-28T09:33:12;3.30;;;3.00;;
966;SDS011;56108;48.730;9.304;2023-07-28T09:35:23;3.40;;;3.03;;
966;SDS011;56108;48.730;9.304;2023-07-28T09:37:31;3.43;;;3.03;;
966;SDS011;56108;48.730;9.304;2023-07-28T09:39:40;3.70;;;3.40;;
966;SDS011;56108;48.730;9.304;2023-07-28T09:41:49;3.83;;;2.80;;
966;SDS011;56108;48.730;9.304;2023-07-28T09:43:57;3.30;;;3.00;;
966;SDS011;56108;48.730;9.304;2023-07-28T09:46:05;2.73;;;2.43;;
966;SDS011;56108;48.730;9.304;2023-07-28T09:48:15;3.00;;;2.70;;
966;SDS011;56108;48.730;9.304;2023-07-28T09:50:23;2.73;;;2.53;;
966;SDS011;56108;48.730;9.304;2023-07-28T09:52:34;2.87;;;2.67;;
966;SDS011;56108;48.730;9.304;2023-07-28T09:54:50;2.90;;;2.70;;
966;SDS011;56108;48.730;9.304;2023-07-28T09:57:04;2.87;;;2.67;;
966;SDS011;56108;48.730;9.304;2023-07-28T09:59:16;2.57;;;2.37;;
966;SDS011;56108;48.730;9.304;2023-07-28T10:01:26;2.97;;;2.67;;
966;SDS011;56108;48.730;9.304;2023-07-28T10:03:35;2.83;;;2.37;;
966;SDS011;56108;48.730;9.304;2023-07-28T10:05:44;2.90;;;2.60;;
966;SDS011;56108;48.730;9.304;2023-07-28T10:07:54;3.90;;;2.70;;
966;SDS011;56108;48.730;9.304;2023-07-28T10:10:07;2.00;;;1.90;;
966;SDS011;56108;48.730;9.304;2023-07-28T10:12:18;3.30;;;3.00;;
966;SDS011;56108;48.730;9.304;2023-07-28T10:14:34;3.30;;;2.93;;
966;SDS011;56108;48.730;9.304;2023-07-28T10:16:43;3.13;;;2.83;;
966;SDS011;56108;48.730;9.304;2023-07-28T10:18:51;2.73;;;2.53;;
966;SDS011;56108;48.730;9.304;2023-07-28T10:21:04;2.73;;;2.53;;
966;SDS011;56108;48.730;9.304;2023-07-28T10:23:14;2.20;;;2.10;;
966;SDS011;56108;48.730;9.304;2023-07-28T10:25:27;2.97;;;2.70;;
966;SDS011;56108;48.730;9.304;2023-07-28T10:27:34;1.90;;;1.80;;
966;SDS011;56108;48.730;9.304;2023-07-28T10:29:55;2.10;;;2.00;;
966;SDS011;56108;48.730;9.304;2023-07-28T10:32:05;2.47;;;2.07;;
966;SDS011;56108;48.730;9.304;2023-07-28T10:34:15;2.50;;;2.30;;
966;SDS011;56108;48.730;9.304;2023-07-28T10:36:32;2.93;;;2.43;;
966;SDS011;56108;48.730;9.304;2023-07-28T10:38:43;3.00;;;2.60;;
966;SDS011;56108;48.730;9.304;2023-07-28T10:41:04;2.10;;;1.80;;
966;SDS011;56108;48.730;9.304;2023-07-28T10:43:10;2.37;;;2.17;;
966;SDS011;56108;48.730;9.304;2023-07-28T10:45:19;2.50;;;2.30;;
966;SDS011;56108;48.730;9.304;2023-07-28T10:47:28;2.90;;;2.60;;
966;SDS011;56108;48.730;9.304;2023-07-28T10:49:37;2.60;;;2.40;;
966;SDS011;56108;48.730;9.304;2023-07-28T10:51:45;2.47;;;1.60;;
966;SDS011;56108;48.730;9.304;2023-07-28T10:53:54;2.47;;;2.37;;
966;SDS011;56108;48.730;9.304;2023-07-28T10:56:06;2.60;;;2.40;;
966;SDS011;56108;48.730;9.304;2023-07-28T10:58:15;3.60;;;2.40;;
966;SDS011;56108;48.730;9.304;2023-07-28T11:00:21;2.20;;;2.07;;
966;SDS011;56108;48.730;9.304;2023-07-28T11:02:30;2.50;;;2.27;;
966;SDS011;56108;48.730;9.304;2023-07-28T11:04:39;2.07;;;1.90;;
966;SDS011;56108;48.730;9.304;2023-07-28T11:06:53;1.93;;;1.80;;
966;SDS011;56108;48.730;9.304;2023-07-28T11:09:02;2.27;;;2.17;;
966;SDS011;56108;48.730;9.304;2023-07-28T11:11:17;2.40;;;2.20;;
966;SDS011;56108;48.730;9.304;2023-07-28T11:13:25;2.17;;;1.97;;
966;SDS011;56108;48.730;9.304;2023-07-28T11:15:45;1.60;;;1.50;;
966;SDS011;56108;48.730;9.304;2023-07-28T11:17:53;3.50;;;1.83;;
966;SDS011;56108;48.730;9.304;2023-07-28T11:20:03;2.97;;;1.97;;
966;SDS011;56108;48.730;9.304;2023-07-28T11:22:16;2.37;;;2.10;;
966;SDS011;56108;48.730;9.304;2023-07-28T11:24:24;2.10;;;1.80;;
966;SDS011;56108;48.730;9.304;2023-07-28T11:26:35;1.67;;;1.57;;
966;SDS011;56108;48.730;9.304;2023-07-28T11:28:43;1.70;;;1.60;;
966;SDS011;56108;48.730;9.304;2023-07-28T11:30:49;1.97;;;1.77;;
966;SDS011;56108;48.730;9.304;2023-07-28T11:32:57;1.60;;;1.20;;
966;SDS011;56108;48.730;9.304;2023-07-28T11:35:06;1.60;;;1.50;;
966;SDS011;56108;48.730;9.304;2023-07-28T11:37:13;1.43;;;1.33;;
966;SDS011;56108;48.730;9.304;2023-07-28T11:39:21;1.30;;;1.20;;
966;SDS011;56108;48.730;9.304;2023-07-28T11:41:30;1.03;;;1.00;;
966;SDS011;56108;48.730;9.304;2023-07-28T11:43:42;1.20;;;1.10;;
966;SDS011;56108;48.730;9.304;2023-07-28T11:45:53;1.20;;;1.10;;
966;SDS011;56108;48.730;9.304;2023-07-28T11:48:02;1.60;;;1.50;;
966;SDS011;56108;48.730;9.304;2023-07-28T11:50:14;1.17;;;1.17;;
966;SDS011;56108;48.730;9.304;2023-07-28T11:52:30;1.60;;;1.20;;
966;SDS011;56108;48.730;9.304;2023-07-28T11:54:39;1.23;;;1.13;;
966;SDS011;56108;48.730;9.304;2023-07-28T11:56:48;1.47;;;1.20;;
966;SDS011;56108;48.730;9.304;2023-07-28T11:59:00;1.37;;;1.20;;
966;SDS011;56108;48.730;9.304;2023-07-28T12:01:09;1.70;;;1.30;;
966;SDS011;56108;48.730;9.304;2023-07-28T12:03:18;1.40;;;1.30;;
966;SDS011;56108;48.730;9.304;2023-07-28T12:05:27;2.23;;;1.63;;
966;SDS011;56108;48.730;9.304;2023-07-28T12:07:36;1.23;;;1.17;;
966;SDS011;56108;48.730;9.304;2023-07-28T12:09:48;1.30;;;1.20;;
966;SDS011;56108;48.730;9.304;2023-07-28T12:11:59;1.70;;;1.60;;
966;SDS011;56108;48.730;9.304;2023-07-28T12:14:12;1.13;;;1.03;;
966;SDS011;56108;48.730;9.304;2023-07-28T12:16:41;1.50;;;1.40;;
966;SDS011;56108;48.730;9.304;2023-07-28T12:18:58;2.27;;;1.67;;
966;SDS011;56108;48.730;9.304;2023-07-28T12:21:06;1.57;;;1.47;;
966;SDS011;56108;48.730;9.304;2023-07-28T12:23:14;1.57;;;1.47;;
966;SDS011;56108;48.730;9.304;2023-07-28T12:25:26;2.03;;;1.80;;
966;SDS011;56108;48.730;9.304;2023-07-28T12:27:32;1.70;;;1.60;;
966;SDS011;56108;48.730;9.304;2023-07-28T12:29:43;1.80;;;1.70;;
966;SDS011;56108;48.730;9.304;2023-07-28T12:32:07;1.83;;;1.73;;
966;SDS011;56108;48.730;9.304;2023-07-28T12:34:36;1.90;;;1.80;;
966;SDS011;56108;48.730;9.304;2023-07-28T12:36:48;1.70;;;1.60;;
966;SDS011;56108;48.730;9.304;2023-07-28T12:38:58;2.00;;;1.80;;
966;SDS011;56108;48.730;9.304;2023-07-28T12:41:28;1.70;;;1.60;;
966;SDS011;56108;48.730;9.304;2023-07-28T12:43:39;2.20;;;2.00;;
966;SDS011;56108;48.730;9.304;2023-07-28T12:45:52;1.80;;;1.60;;
966;SDS011;56108;48.730;9.304;2023-07-28T12:48:04;1.97;;;1.83;;
966;SDS011;56108;48.730;9.304;2023-07-28T12:50:23;1.87;;;1.73;;
966;SDS011;56108;48.730;9.304;2023-07-28T12:52:31;1.77;;;1.67;;
966;SDS011;56108;48.730;9.304;2023-07-28T12:54:42;1.73;;;1.60;;
966;SDS011;56108;48.730;9.304;2023-07-28T12:56:50;2.10;;;1.50;;
966;SDS011;56108;48.730;9.304;2023-07-28T12:59:01;1.57;;;1.47;;
966;SDS011;56108;48.730;9.304;2023-07-28T13:01:15;3.07;;;2.10;;
966;SDS011;56108;48.730;9.304;2023-07-28T13:03:23;1.67;;;1.57;;
966;SDS011;56108;48.730;9.304;2023-07-28T13:05:32;1.73;;;1.63;;
966;SDS011;56108;48.730;9.304;2023-07-28T13:07:40;2.17;;;2.00;;
966;SDS011;56108;48.730;9.304;2023-07-28T13:09:51;2.07;;;1.97;;
966;SDS011;56108;48.730;9.304;2023-07-28T13:11:59;2.73;;;2.50;;
966;SDS011;56108;48.730;9.304;2023-07-28T13:14:10;2.07;;;1.97;;
966;SDS011;56108;48.730;9.304;2023-07-28T13:16:21;1.87;;;1.70;;
966;SDS011;56108;48.730;9.304;2023-07-28T13:18:30;2.40;;;1.93;;
966;SDS011;56108;48.730;9.304;2023-07-28T13:20:39;2.60;;;2.37;;
966;SDS011;56108;48.730;9.304;2023-07-28T13:22:47;1.70;;;1.60;;
966;SDS011;56108;48.730;9.304;2023-07-28T13:24:55;1.77;;;1.67;;
966;SDS011;56108;48.730;9.304;2023-07-28T13:27:03;1.90;;;1.80;;
966;SDS011;56108;48.730;9.304;2023-07-28T13:29:12;1.77;;;1.67;;